createdAt,value
2017-07-11T00:02:22.509Z,99.90
2017-07-11T00:04:51.105Z,99.90
2017-07-11T00:07:19.869Z,99.90
2017-07-11T00:09:47.670Z,99.90
2017-07-11T00:12:16.301Z,99.90
2017-07-11T00:14:44.130Z,99.90
2017-07-11T00:17:11.989Z,99.90
2017-07-11T00:19:43.620Z,99.90
2017-07-11T00:22:12.314Z,99.90
2017-07-11T00:24:41.309Z,99.90
2017-07-11T00:27:10.851Z,99.90
2017-07-11T00:29:40.093Z,99.90
2017-07-11T00:32:09.141Z,99.90
2017-07-11T00:34:36.961Z,99.90
2017-07-11T00:37:06.858Z,99.90
2017-07-11T00:39:37.933Z,99.90
2017-07-11T00:42:05.745Z,99.90
2017-07-11T00:44:33.558Z,99.90
2017-07-11T00:47:01.355Z,99.90
2017-07-11T00:49:30.342Z,99.90
2017-07-11T00:51:58.134Z,99.90
2017-07-11T00:54:26.988Z,99.90
2017-07-11T00:56:55.398Z,99.90
2017-07-11T00:59:23.200Z,99.90
2017-07-11T01:01:51.163Z,99.90
2017-07-11T01:04:19.072Z,99.90
2017-07-11T01:06:46.930Z,99.90
2017-07-11T01:09:15.945Z,99.90
2017-07-11T01:11:44.119Z,99.90
2017-07-11T01:14:11.995Z,99.90
2017-07-11T01:16:40.640Z,99.90
2017-07-11T01:19:08.500Z,99.90
2017-07-11T01:21:36.435Z,99.90
2017-07-11T01:24:06.028Z,99.90
2017-07-11T01:26:34.625Z,99.90
2017-07-11T01:29:02.801Z,99.90
2017-07-11T01:31:30.637Z,99.90
2017-07-11T01:33:59.257Z,99.90
2017-07-11T01:36:41.916Z,99.90
2017-07-11T01:39:10.539Z,99.90
2017-07-11T01:41:40.084Z,99.90
2017-07-11T01:44:07.931Z,99.90
2017-07-11T01:46:35.754Z,99.90
2017-07-11T01:49:03.558Z,99.90
2017-07-11T01:51:31.411Z,99.90
2017-07-11T01:53:59.564Z,99.90
2017-07-11T01:56:27.361Z,99.90
2017-07-11T01:58:55.810Z,99.90
2017-07-11T02:01:23.648Z,99.90
2017-07-11T02:03:51.529Z,99.90
2017-07-11T02:06:19.338Z,99.90
2017-07-11T02:08:47.129Z,99.90
2017-07-11T02:11:14.941Z,99.90
2017-07-11T02:13:42.758Z,99.90
2017-07-11T02:16:11.362Z,99.90
2017-07-11T02:18:39.145Z,99.90
2017-07-11T02:21:06.932Z,99.90
2017-07-11T02:23:34.727Z,99.90
2017-07-11T02:26:03.362Z,99.90
2017-07-11T02:28:31.203Z,99.90
2017-07-11T02:30:58.990Z,99.90
2017-07-11T02:33:27.585Z,99.90
2017-07-11T02:35:55.397Z,99.90
2017-07-11T02:38:23.175Z,99.90
2017-07-11T02:40:51.010Z,99.90
2017-07-11T02:43:18.791Z,99.90
2017-07-11T02:45:46.569Z,99.90
2017-07-11T02:48:14.665Z,99.90
2017-07-11T02:50:42.446Z,99.90
2017-07-11T02:53:11.051Z,99.90
2017-07-11T02:55:38.874Z,99.90
2017-07-11T02:58:06.718Z,99.90
2017-07-11T03:00:34.525Z,99.90
2017-07-11T03:03:02.313Z,99.90
2017-07-11T03:05:30.213Z,99.90
2017-07-11T03:07:58.001Z,99.90
2017-07-11T03:10:26.563Z,99.90
2017-07-11T03:12:54.377Z,99.90
2017-07-11T03:15:22.156Z,99.90
2017-07-11T03:17:50.002Z,99.90
2017-07-11T03:20:17.794Z,99.90
2017-07-11T03:22:45.585Z,99.90
2017-07-11T03:25:13.397Z,99.90
2017-07-11T03:27:41.182Z,99.90
2017-07-11T03:30:10.635Z,99.90
2017-07-11T03:32:40.114Z,99.90
2017-07-11T03:35:08.729Z,99.90
2017-07-11T03:37:36.552Z,99.90
2017-07-11T03:40:05.101Z,99.90
2017-07-11T03:42:32.940Z,99.90
2017-07-11T03:45:00.952Z,99.90
2017-07-11T03:47:28.743Z,99.90
2017-07-11T03:49:57.336Z,99.90
2017-07-11T03:52:26.026Z,99.90
2017-07-11T03:54:55.605Z,99.90
2017-07-11T03:57:24.636Z,99.90
2017-07-11T03:59:52.424Z,99.90
2017-07-11T04:02:20.609Z,99.90
2017-07-11T04:04:48.398Z,99.90
2017-07-11T04:07:17.005Z,99.90
2017-07-11T04:09:44.969Z,99.90
2017-07-11T04:12:12.753Z,99.90
2017-07-11T04:14:40.562Z,99.90
2017-07-11T04:17:09.116Z,99.90
2017-07-11T04:19:37.656Z,99.90
2017-07-11T04:22:05.458Z,99.90
2017-07-11T04:24:33.237Z,99.90
2017-07-11T04:27:01.005Z,99.90
2017-07-11T04:29:28.813Z,99.90
2017-07-11T04:31:56.581Z,99.90
2017-07-11T04:34:24.349Z,99.90
2017-07-11T04:36:52.141Z,99.90
2017-07-11T04:39:19.899Z,99.90
2017-07-11T04:41:47.679Z,99.90
2017-07-11T04:44:16.238Z,99.90
2017-07-11T04:46:43.996Z,99.90
2017-07-11T04:49:11.857Z,99.90
2017-07-11T04:51:39.648Z,99.90
2017-07-11T04:54:08.179Z,99.90
2017-07-11T04:56:36.081Z,99.90
2017-07-11T04:59:05.151Z,99.90
2017-07-11T05:01:32.971Z,99.90
2017-07-11T05:04:00.952Z,99.90
2017-07-11T05:06:28.714Z,99.90
2017-07-11T05:08:56.513Z,99.90
2017-07-11T05:11:24.274Z,99.90
2017-07-11T05:13:52.091Z,99.90
2017-07-11T05:16:19.849Z,99.90
2017-07-11T05:18:47.616Z,99.90
2017-07-11T05:21:15.426Z,99.90
2017-07-11T05:23:43.191Z,99.90
2017-07-11T05:26:11.028Z,99.90
2017-07-11T05:28:38.787Z,99.90
2017-07-11T05:31:06.578Z,99.90
2017-07-11T05:33:34.367Z,99.90
2017-07-11T05:36:02.916Z,99.90
2017-07-11T05:38:30.739Z,99.90
2017-07-11T05:40:58.509Z,99.90
2017-07-11T05:43:26.280Z,99.90
2017-07-11T05:45:54.076Z,99.90
2017-07-11T05:48:21.835Z,99.90
2017-07-11T05:50:49.656Z,99.90
2017-07-11T05:53:17.437Z,99.90
2017-07-11T05:55:45.239Z,99.90
2017-07-11T05:58:13.083Z,99.90
2017-07-11T06:00:40.859Z,99.90
2017-07-11T06:03:09.443Z,99.90
2017-07-11T06:05:37.977Z,99.90
2017-07-11T06:08:05.746Z,99.90
2017-07-11T06:10:33.550Z,99.90
2017-07-11T06:13:02.088Z,99.90
2017-07-11T06:15:29.871Z,99.90
2017-07-11T06:17:57.633Z,99.90
2017-07-11T06:20:25.471Z,99.90
2017-07-11T06:22:53.238Z,99.90
2017-07-11T06:25:21.006Z,99.90
2017-07-11T06:27:48.796Z,99.90
2017-07-11T06:30:17.327Z,99.90
2017-07-11T06:32:45.147Z,99.90
2017-07-11T06:35:12.924Z,99.90
2017-07-11T06:37:40.683Z,99.90
2017-07-11T06:40:08.475Z,99.90
2017-07-11T06:42:36.256Z,99.90
2017-07-11T06:45:04.038Z,99.90
2017-07-11T06:47:32.604Z,99.90
2017-07-11T06:50:00.371Z,99.90
2017-07-11T06:52:28.135Z,99.90
2017-07-11T06:54:55.951Z,99.90
2017-07-11T06:57:23.712Z,99.90
2017-07-11T06:59:51.491Z,99.90
2017-07-11T07:02:19.290Z,99.90
2017-07-11T07:04:47.055Z,99.90
2017-07-11T07:07:15.642Z,99.90
2017-07-11T07:09:44.171Z,99.90
2017-07-11T07:12:11.944Z,99.90
2017-07-11T07:14:39.778Z,99.90
2017-07-11T07:17:07.531Z,99.90
2017-07-11T07:19:35.286Z,99.90
2017-07-11T07:22:03.106Z,99.90
2017-07-11T07:24:30.857Z,99.90
2017-07-11T07:26:58.616Z,99.90
2017-07-11T07:29:26.443Z,99.90
2017-07-11T07:31:54.211Z,99.90
2017-07-11T07:34:21.959Z,99.90
2017-07-11T07:36:49.790Z,99.90
2017-07-11T07:39:17.547Z,99.90
2017-07-11T07:41:45.307Z,99.90
2017-07-11T07:44:13.331Z,99.90
2017-07-11T07:46:41.110Z,99.90
2017-07-11T07:49:08.873Z,99.90
2017-07-11T07:51:36.688Z,99.90
2017-07-11T07:54:04.450Z,99.90
2017-07-11T07:56:32.983Z,99.90
2017-07-11T07:59:00.779Z,99.90
2017-07-11T08:01:29.302Z,99.90
2017-07-11T08:03:57.072Z,99.90
2017-07-11T08:06:24.935Z,99.90
2017-07-11T08:08:52.876Z,99.90
2017-07-11T08:11:20.680Z,99.90
2017-07-11T08:13:48.496Z,99.90
2017-07-11T08:16:16.262Z,99.90
2017-07-11T08:18:44.030Z,99.90
2017-07-11T08:21:11.818Z,99.90
2017-07-11T08:23:39.586Z,99.90
2017-07-11T08:26:07.378Z,99.90
2017-07-11T08:28:35.926Z,99.90
2017-07-11T08:31:03.682Z,99.90
2017-07-11T08:33:31.441Z,99.90
2017-07-11T08:35:59.244Z,99.90
2017-07-11T08:38:27.786Z,99.90
2017-07-11T08:40:55.575Z,99.90
2017-07-11T08:43:23.364Z,99.90
2017-07-11T08:45:51.136Z,99.90
2017-07-11T08:48:18.923Z,99.90
2017-07-11T08:50:46.688Z,99.90
2017-07-11T08:53:14.498Z,99.90
2017-07-11T08:55:43.036Z,99.90
2017-07-11T08:58:10.795Z,99.90
2017-07-11T09:00:38.592Z,99.90
2017-07-11T09:03:06.460Z,99.90
2017-07-11T09:05:36.865Z,99.90
2017-07-11T09:08:05.139Z,99.90
2017-07-11T09:10:33.921Z,99.90
2017-07-11T09:13:04.860Z,99.90
2017-07-11T09:15:33.427Z,99.90
2017-07-11T09:18:01.242Z,99.90
2017-07-11T09:20:28.999Z,99.90
2017-07-11T09:22:56.764Z,99.90
2017-07-11T09:25:24.548Z,99.90
2017-07-11T09:27:52.312Z,99.90
2017-07-11T09:30:20.122Z,99.90
2017-07-11T09:32:47.879Z,99.90
2017-07-11T09:35:15.631Z,99.90
2017-07-11T09:37:43.435Z,99.90
2017-07-11T09:40:11.188Z,99.90
2017-07-11T09:42:39.776Z,99.90
2017-07-11T09:45:07.530Z,99.90
2017-07-11T09:47:36.069Z,99.90
2017-07-11T09:50:03.854Z,99.90
2017-07-11T09:52:31.611Z,99.90
2017-07-11T09:54:59.431Z,99.90
2017-07-11T09:57:27.188Z,99.90
2017-07-11T09:59:54.940Z,99.90
2017-07-11T10:02:22.726Z,99.90
2017-07-11T10:04:50.509Z,97.00
2017-07-11T10:07:18.333Z,99.90
2017-07-11T10:09:46.101Z,99.90
2017-07-11T10:12:13.888Z,99.80
2017-07-11T10:14:41.680Z,99.90
2017-07-11T10:17:10.205Z,99.70
2017-07-11T10:19:38.019Z,99.70
2017-07-11T10:22:06.550Z,99.00
2017-07-11T10:24:34.305Z,99.00
2017-07-11T10:27:02.100Z,98.90
2017-07-11T10:29:29.861Z,98.20
2017-07-11T10:31:57.680Z,99.90
2017-07-11T10:34:25.448Z,99.90
2017-07-11T10:36:53.204Z,99.90
2017-07-11T10:39:20.998Z,99.90
2017-07-11T10:41:48.760Z,99.90
2017-07-11T10:44:16.583Z,99.90
2017-07-11T10:46:44.335Z,99.90
2017-07-11T10:49:12.854Z,99.90
2017-07-11T10:51:43.584Z,99.90
2017-07-11T10:54:11.343Z,99.90
2017-07-11T10:56:39.156Z,99.90
2017-07-11T10:59:07.674Z,99.90
2017-07-11T11:01:35.431Z,99.90
2017-07-11T11:04:03.220Z,98.60
2017-07-11T11:06:30.979Z,99.90
2017-07-11T11:08:58.809Z,99.90
2017-07-11T11:11:26.567Z,99.90
2017-07-11T11:13:54.460Z,99.90
2017-07-11T11:16:22.256Z,99.90
2017-07-11T11:18:50.019Z,99.90
2017-07-11T11:21:18.027Z,99.90
2017-07-11T11:23:45.783Z,99.90
2017-07-11T11:26:13.533Z,99.90
2017-07-11T11:28:42.097Z,99.90
2017-07-11T11:31:10.623Z,99.90
2017-07-11T11:33:38.431Z,99.90
2017-07-11T11:36:06.181Z,99.90
2017-07-11T11:38:33.939Z,99.50
2017-07-11T11:41:01.731Z,99.90
2017-07-11T11:43:30.295Z,99.90
2017-07-11T11:45:58.111Z,99.90
2017-07-11T11:48:25.881Z,99.90
2017-07-11T11:50:53.656Z,99.90
2017-07-11T11:53:21.453Z,99.90
2017-07-11T11:56:01.113Z,99.90
2017-07-11T11:58:28.966Z,99.90
2017-07-11T12:00:57.484Z,99.90
2017-07-11T12:03:25.242Z,99.90
2017-07-11T12:05:53.027Z,99.90
2017-07-11T12:08:20.824Z,99.90
2017-07-11T12:10:48.644Z,99.90
2017-07-11T12:13:16.401Z,99.90
2017-07-11T12:15:44.297Z,99.90
2017-07-11T12:18:13.111Z,99.90
2017-07-11T12:20:41.026Z,99.90
2017-07-11T12:23:08.917Z,99.90
2017-07-11T12:25:38.083Z,99.90
2017-07-11T12:28:05.943Z,99.90
2017-07-11T12:30:34.091Z,99.90
2017-07-11T12:33:01.931Z,99.90
2017-07-11T12:35:30.664Z,99.90
2017-07-11T12:38:06.260Z,99.90
2017-07-11T12:40:34.848Z,99.90
2017-07-11T12:43:02.619Z,99.90
2017-07-11T12:45:30.394Z,99.90
2017-07-11T12:47:58.183Z,99.90
2017-07-11T12:50:27.215Z,99.90
2017-07-11T12:52:55.808Z,99.90
2017-07-11T12:55:23.576Z,99.90
2017-07-11T12:57:51.336Z,99.90
2017-07-11T13:00:19.132Z,99.90
2017-07-11T13:02:46.903Z,99.90
2017-07-11T13:05:14.722Z,99.90
2017-07-11T13:07:42.497Z,99.90
2017-07-11T13:10:10.259Z,99.90
2017-07-11T13:12:38.045Z,99.90
2017-07-11T13:15:05.798Z,99.90
2017-07-11T13:17:33.707Z,99.90
2017-07-11T13:20:02.232Z,99.90
2017-07-11T13:22:30.001Z,99.90
2017-07-11T13:24:57.804Z,99.90
2017-07-11T13:27:26.334Z,99.90
2017-07-11T13:29:54.147Z,99.90
2017-07-11T13:32:22.674Z,99.90
2017-07-11T13:34:50.475Z,99.90
2017-07-11T13:37:18.255Z,99.90
2017-07-11T13:39:46.775Z,99.90
2017-07-11T13:42:14.584Z,99.90
2017-07-11T13:44:42.334Z,99.90
2017-07-11T13:47:10.093Z,99.90
2017-07-11T13:49:37.946Z,99.90
2017-07-11T13:52:05.708Z,99.00
2017-07-11T13:54:33.527Z,99.90
2017-07-11T13:57:01.283Z,98.60
2017-07-11T13:59:29.033Z,99.80
2017-07-11T14:01:57.577Z,96.70
2017-07-11T14:04:25.335Z,96.60
2017-07-11T14:06:53.148Z,97.60
2017-07-11T14:09:20.898Z,95.60
2017-07-11T14:11:49.411Z,95.60
2017-07-11T14:14:17.183Z,95.60
2017-07-11T14:16:44.927Z,97.40
2017-07-11T14:19:12.747Z,93.90
2017-07-11T14:21:40.503Z,95.50
2017-07-11T14:24:08.267Z,97.30
2017-07-11T14:26:36.048Z,97.90
2017-07-11T14:29:04.564Z,97.60
2017-07-11T14:31:32.374Z,97.60
2017-07-11T14:34:00.122Z,97.40
2017-07-11T14:36:27.881Z,98.10
2017-07-11T14:38:55.670Z,99.10
2017-07-11T14:41:24.183Z,98.20
2017-07-11T14:43:52.156Z,97.90
2017-07-11T14:46:19.915Z,97.80
2017-07-11T14:48:47.671Z,98.40
2017-07-11T14:51:15.472Z,97.80
2017-07-11T14:53:43.230Z,98.50
2017-07-11T14:56:11.039Z,98.70
2017-07-11T14:58:38.800Z,99.80
2017-07-11T15:01:06.559Z,99.50
2017-07-11T15:03:34.358Z,99.90
2017-07-11T15:06:02.124Z,99.00
2017-07-11T15:08:29.951Z,99.30
2017-07-11T15:10:57.716Z,99.00
2017-07-11T15:13:25.483Z,97.80
2017-07-11T15:15:53.277Z,97.30
2017-07-11T15:18:21.037Z,97.30
2017-07-11T15:20:48.864Z,97.70
2017-07-11T15:23:16.626Z,97.30
2017-07-11T15:25:44.391Z,97.70
2017-07-11T15:28:12.192Z,95.00
2017-07-11T15:30:39.996Z,94.90
2017-07-11T15:33:08.580Z,95.50
2017-07-11T15:35:36.340Z,95.50
2017-07-11T15:38:04.873Z,95.30
2017-07-11T15:40:32.668Z,95.20
2017-07-11T15:43:00.430Z,95.00
2017-07-11T15:45:29.014Z,96.60
2017-07-11T15:47:57.543Z,94.50
2017-07-11T15:50:25.463Z,94.50
2017-07-11T15:52:53.268Z,94.90
2017-07-11T15:55:21.051Z,94.80
2017-07-11T15:57:48.865Z,95.90
2017-07-11T16:00:16.640Z,94.10
2017-07-11T16:02:44.423Z,93.80
2017-07-11T16:05:12.222Z,94.60
2017-07-11T16:07:39.993Z,94.90
2017-07-11T16:10:08.612Z,94.80
2017-07-11T16:12:36.443Z,94.80
2017-07-11T16:15:04.980Z,94.60
2017-07-11T16:17:33.010Z,94.20
2017-07-11T16:20:00.796Z,95.30
2017-07-11T16:22:28.606Z,95.20
2017-07-11T16:24:57.144Z,94.70
2017-07-11T16:27:24.912Z,94.50
2017-07-11T16:29:52.698Z,95.00
2017-07-11T16:32:20.454Z,96.10
2017-07-11T16:34:48.271Z,95.50
2017-07-11T16:37:16.038Z,94.90
2017-07-11T16:39:43.843Z,95.80
2017-07-11T16:42:11.629Z,96.20
2017-07-11T16:44:40.217Z,95.50
2017-07-11T16:47:08.111Z,95.50
2017-07-11T16:49:35.946Z,95.00
2017-07-11T16:52:03.702Z,96.40
2017-07-11T16:54:32.270Z,95.50
2017-07-11T16:57:00.845Z,95.50
2017-07-11T16:59:28.670Z,95.30
2017-07-11T17:01:56.432Z,95.70
2017-07-11T17:04:24.195Z,96.20
2017-07-11T17:06:51.996Z,96.10
2017-07-11T17:09:19.875Z,96.10
2017-07-11T17:11:48.541Z,96.00
2017-07-11T17:14:17.188Z,96.10
2017-07-11T17:16:44.950Z,96.10
2017-07-11T17:19:12.932Z,95.80
2017-07-11T17:21:40.925Z,96.00
2017-07-11T17:24:08.755Z,96.10
2017-07-11T17:26:36.532Z,97.60
2017-07-11T17:29:04.291Z,97.00
2017-07-11T17:31:32.081Z,96.90
2017-07-11T17:33:59.890Z,98.10
2017-07-11T17:36:27.776Z,97.60
2017-07-11T17:38:55.552Z,97.70
2017-07-11T17:41:23.348Z,98.10
2017-07-11T17:43:51.809Z,97.70
2017-07-11T17:46:20.369Z,97.80
2017-07-11T17:48:48.993Z,97.80
2017-07-11T17:51:16.867Z,97.90
2017-07-11T17:53:44.683Z,98.40
2017-07-11T17:56:13.320Z,98.70
2017-07-11T17:58:41.087Z,98.70
2017-07-11T18:01:08.908Z,98.80
2017-07-11T18:03:36.803Z,99.90
2017-07-11T18:06:04.572Z,99.90
2017-07-11T18:08:32.369Z,99.20
2017-07-11T18:11:00.125Z,99.80
2017-07-11T18:13:27.939Z,99.90
2017-07-11T18:15:55.699Z,99.90
2017-07-11T18:18:23.475Z,99.90
2017-07-11T18:20:51.286Z,99.90
2017-07-11T18:23:19.815Z,99.90
2017-07-11T18:25:47.631Z,99.90
2017-07-11T18:28:16.152Z,99.90
2017-07-11T18:30:43.935Z,99.90
2017-07-11T18:33:11.745Z,99.90
2017-07-11T18:35:39.524Z,99.90
2017-07-11T18:38:07.366Z,99.90
2017-07-11T18:40:35.918Z,99.90
2017-07-11T18:43:04.696Z,99.90
2017-07-11T18:45:32.537Z,99.90
2017-07-11T18:48:00.339Z,99.90
2017-07-11T18:50:28.188Z,99.90
2017-07-11T18:52:55.986Z,99.90
2017-07-11T18:55:26.890Z,99.90
2017-07-11T18:57:57.226Z,99.90
2017-07-11T19:00:28.132Z,99.90
2017-07-11T19:02:57.158Z,99.90
2017-07-11T19:05:27.298Z,99.90
2017-07-11T19:07:55.393Z,99.90
2017-07-11T19:10:23.914Z,99.90
2017-07-11T19:12:57.506Z,99.90
2017-07-11T19:15:26.591Z,99.90
2017-07-11T19:17:56.071Z,99.90
2017-07-11T19:20:25.529Z,99.90
2017-07-11T19:22:56.548Z,99.90
2017-07-11T19:25:24.326Z,99.90
2017-07-11T19:27:53.931Z,99.90
2017-07-11T19:30:21.708Z,99.90
2017-07-11T19:32:49.532Z,99.90
2017-07-11T19:35:17.508Z,99.90
2017-07-11T19:37:45.292Z,99.90
2017-07-11T19:40:13.134Z,99.90
2017-07-11T19:42:41.701Z,99.90
2017-07-11T19:45:09.479Z,99.90
2017-07-11T19:47:38.085Z,99.90
2017-07-11T19:50:05.856Z,99.90
2017-07-11T19:52:33.671Z,99.90
2017-07-11T19:55:01.566Z,99.90
2017-07-11T19:57:29.349Z,99.90
2017-07-11T19:59:57.192Z,99.90
2017-07-11T20:02:24.944Z,99.90
2017-07-11T20:04:53.523Z,99.90
2017-07-11T20:07:22.059Z,99.90
2017-07-11T20:09:49.817Z,99.90
2017-07-11T20:12:17.598Z,99.90
2017-07-11T20:14:45.357Z,99.90
2017-07-11T20:17:14.956Z,99.90
2017-07-11T20:19:42.707Z,99.90
2017-07-11T20:22:10.466Z,99.90
2017-07-11T20:24:38.247Z,99.90
2017-07-11T20:27:06.000Z,99.90
2017-07-11T20:29:33.760Z,99.90
2017-07-11T20:32:01.538Z,99.90
2017-07-11T20:34:29.294Z,99.90
2017-07-11T20:36:57.044Z,99.90
2017-07-11T20:39:24.858Z,99.90
2017-07-11T20:41:53.435Z,99.90
2017-07-11T20:44:21.955Z,99.90
2017-07-11T20:46:49.735Z,99.90
2017-07-11T20:49:17.483Z,99.90
2017-07-11T20:51:45.231Z,99.90
2017-07-11T20:54:13.027Z,99.90
2017-07-11T20:56:40.806Z,99.90
2017-07-11T20:59:08.588Z,99.90
2017-07-11T21:01:36.376Z,99.90
2017-07-11T21:04:04.123Z,99.90
2017-07-11T21:06:31.907Z,99.90
2017-07-11T21:08:59.669Z,99.90
2017-07-11T21:11:27.492Z,99.90
2017-07-11T21:13:56.134Z,99.90
2017-07-11T21:16:23.892Z,99.90
2017-07-11T21:18:51.680Z,99.90
2017-07-11T21:21:19.428Z,99.90
2017-07-11T21:23:47.236Z,99.90
2017-07-11T21:26:14.988Z,99.90
2017-07-11T21:28:42.739Z,99.90
2017-07-11T21:31:10.523Z,99.90
2017-07-11T21:33:38.288Z,99.90
2017-07-11T21:36:06.103Z,99.90
2017-07-11T21:38:34.527Z,99.90
2017-07-11T21:41:02.316Z,99.90
2017-07-11T21:43:30.155Z,99.90
2017-07-11T21:45:57.927Z,99.90
2017-07-11T21:48:25.791Z,99.90
2017-07-11T21:50:53.583Z,99.90
2017-07-11T21:53:21.337Z,99.90
2017-07-11T21:55:49.124Z,99.90
2017-07-11T21:58:17.671Z,99.90
2017-07-11T22:00:45.483Z,99.90
2017-07-11T22:03:13.236Z,99.90
2017-07-11T22:05:41.753Z,99.90
2017-07-11T22:08:09.526Z,99.90
2017-07-11T22:10:37.277Z,99.90
2017-07-11T22:13:05.086Z,99.90
2017-07-11T22:15:32.864Z,99.90
2017-07-11T22:18:01.418Z,99.90
2017-07-11T22:20:29.250Z,99.90
2017-07-11T22:22:57.010Z,99.90
2017-07-11T22:25:24.838Z,99.90
2017-07-11T22:27:52.678Z,99.90
2017-07-11T22:30:20.449Z,99.90
2017-07-11T22:32:49.007Z,99.90
2017-07-11T22:35:16.764Z,99.90
2017-07-11T22:37:44.578Z,99.90
2017-07-11T22:40:12.341Z,99.90
2017-07-11T22:42:40.524Z,99.90
2017-07-11T22:45:08.307Z,99.90
2017-07-11T22:47:36.059Z,99.90
2017-07-11T22:50:03.870Z,99.90
2017-07-11T22:52:32.396Z,99.90
2017-07-11T22:55:00.143Z,99.90
2017-07-11T22:57:27.952Z,99.90
2017-07-11T22:59:55.700Z,99.90
2017-07-11T23:02:23.520Z,99.90
2017-07-11T23:04:51.270Z,99.90
2017-07-11T23:07:20.967Z,99.90
2017-07-11T23:09:48.870Z,99.90
2017-07-11T23:12:16.646Z,99.90
2017-07-11T23:14:44.460Z,99.90
2017-07-11T23:17:12.211Z,99.90
2017-07-11T23:19:39.964Z,99.90
2017-07-11T23:22:07.763Z,99.90
2017-07-11T23:24:35.523Z,99.90
2017-07-11T23:27:03.339Z,99.90
2017-07-11T23:29:31.093Z,99.90
2017-07-11T23:31:58.852Z,99.90
2017-07-11T23:34:26.675Z,99.90
2017-07-11T23:36:54.447Z,99.90
2017-07-11T23:39:22.262Z,99.90
2017-07-11T23:41:50.070Z,99.90
2017-07-11T23:44:17.820Z,99.90
2017-07-11T23:46:45.600Z,99.90
2017-07-11T23:49:13.350Z,99.90
2017-07-11T23:51:41.158Z,99.90
2017-07-11T23:54:08.904Z,99.90
2017-07-11T23:56:36.657Z,99.90
2017-07-11T23:59:04.437Z,99.90
